KSUE/SUE METAR and TAF weather

Enter ICAO airport designator
Station Type Date Time Source
KSUE METAR 2020/09/23 03:56 UTC NOAA

KSUE 230356Z AUTO 22005KT 10SM CLR 18/15 A3003 RMK AO2 SLP165 T01780150 PNO $


Station Type Date Time Source
KSUE Decoded METAR 2020/09/23 03:56 UTC NOAA

Sturgeon Bay, WI, United States (KSUE) 44-51N 087-25W
Sep 22, 2020 - 11:56 PM EDT / 2020.09.23 0356 UTC
Wind: from the SW (220 degrees) at 6 MPH (5 KT):0
Visibility: 10 mile(s):0
Sky conditions: clear
Temperature: 64.0 F (17.8 C)
Dew Point: 59.0 F (15.0 C)
Relative Humidity: 83%
Pressure (altimeter): 30.03 in. Hg (1016 hPa)
ob: KSUE 230356Z AUTO 22005KT 10SM CLR 18/15 A3003 RMK AO2 SLP165 T01780150 PNO
cycle: 4

Station Type Date Time Source
KSUE TAF UTC NOAA

Error!

Example: see airport list